Time;durP1;ratioP1;P1;durP2;ratioP2;P2;SDS_P1;SDS_P2;PMS_P1;PMS_P2;Temp;Humidity;BMP_temperature;BMP_pressure;BME280_temperature;BME280_humidity;BME280_pressure;Samples;Min_cycle;Max_cycle;Signal;HPM_P1;HPM_P2
2023/12/27 00:00:58;;;;;;;18.40;17.40;;;;;;;-141.02;100.00;40519.59;5093181;28;20272;-69
2023/12/27 00:03:25;;;;;;;17.90;16.90;;;;;;;-141.02;100.00;40517.69;5093048;28;20668;-73
2023/12/27 00:05:52;;;;;;;18.17;17.17;;;;;;;-141.02;100.00;40536.88;5093005;28;20189;-73
2023/12/27 00:08:19;;;;;;;18.50;17.50;;;;;;;-141.02;100.00;40517.69;5093019;28;20190;-74
2023/12/27 00:10:46;;;;;;;18.30;17.30;;;;;;;-141.02;100.00;40475.47;5093276;28;20280;-74
2023/12/27 00:13:14;;;;;;;18.57;17.57;;;;;;;-141.02;100.00;40510.00;5092958;28;20238;-72
2023/12/27 00:15:45;;;;;;;18.60;17.60;;;;;;;-141.02;100.00;40517.69;5092816;28;20285;-72
2023/12/27 00:18:12;;;;;;;18.73;17.73;;;;;;;-141.02;100.00;40479.31;5093103;28;20218;-72
2023/12/27 00:20:39;;;;;;;18.30;17.30;;;;;;;-141.02;100.00;40494.66;5092773;28;20201;-73
2023/12/27 00:23:05;;;;;;;17.90;16.90;;;;;;;-141.02;100.00;40462.03;5093042;28;20198;-72
2023/12/27 00:25:32;;;;;;;17.73;16.83;;;;;;;-141.02;100.00;40439.03;5092966;28;20682;-73
2023/12/27 00:27:58;;;;;;;17.70;16.80;;;;;;;-141.02;100.00;40402.56;5092450;28;20233;-72
2023/12/27 00:30:27;;;;;;;17.40;16.50;;;;;;;-141.02;100.00;40394.91;5092598;28;20686;-72
2023/12/27 00:32:54;;;;;;;17.30;16.40;;;;;;;-141.02;100.00;40329.69;5092900;28;20603;-73
2023/12/27 00:35:20;;;;;;;16.97;16.07;;;;;;;-141.02;100.00;40314.34;5092886;28;20197;-74
2023/12/27 00:37:47;;;;;;;16.90;16.07;;;;;;;-141.02;100.00;40281.72;5092476;28;20229;-67
2023/12/27 00:40:15;;;;;;;16.87;15.97;;;;;;;-141.02;100.00;40274.06;5092868;28;20215;-73
2023/12/27 00:42:42;;;;;;;17.33;16.43;;;;;;;-141.02;100.00;40252.94;5092486;28;20198;-72
2023/12/27 00:45:10;;;;;;;17.20;16.30;;;;;;;-141.02;100.00;40268.28;5092352;28;20196;-72
2023/12/27 00:47:38;;;;;;;17.10;16.20;;;;;;;-141.02;100.00;40281.72;5092634;28;20190;-73
2023/12/27 00:50:06;;;;;;;17.40;16.50;;;;;;;-141.02;100.00;40226.09;5092345;28;20681;-73
2023/12/27 00:52:33;;;;;;;17.93;17.03;;;;;;;-141.02;100.00;40241.44;5092570;28;20222;-72
2023/12/27 00:55:00;;;;;;;17.60;16.70;;;;;;;-141.02;100.00;40252.94;5092279;28;20216;-74
2023/12/27 00:57:27;;;;;;;17.00;16.20;;;;;;;-141.02;100.00;40212.66;5092161;28;20229;-72
2023/12/27 00:59:54;;;;;;;16.80;16.00;;;;;;;-141.02;100.00;40214.59;5092227;28;20678;-73
2023/12/27 01:02:20;;;;;;;16.30;15.50;;;;;;;-141.02;100.00;40199.22;5092487;28;20277;-73
2023/12/27 01:04:49;;;;;;;16.20;15.40;;;;;;;-141.02;100.00;40147.44;5092134;28;20660;-73
2023/12/27 01:07:16;;;;;;;16.40;15.50;;;;;;;-141.02;100.00;40151.28;5092458;28;20193;-73
2023/12/27 01:09:43;;;;;;;15.90;15.10;;;;;;;-141.02;100.00;40063.03;5092383;28;20277;-68
2023/12/27 01:12:10;;;;;;;15.87;15.07;;;;;;;-141.02;100.00;40068.78;5092397;28;20273;-71
2023/12/27 01:14:37;;;;;;;15.53;14.83;;;;;;;-141.02;100.00;40018.94;5092013;28;20225;-73
2023/12/27 01:17:04;;;;;;;15.20;14.50;;;;;;;-141.02;100.00;39992.06;5091949;28;20190;-72
2023/12/27 01:19:31;;;;;;;15.30;14.60;;;;;;;-141.02;100.00;39924.94;5092273;28;20215;-72
2023/12/27 01:21:59;;;;;;;14.70;14.10;;;;;;;-141.02;100.00;39888.50;5092220;28;20193;-72
2023/12/27 01:24:26;;;;;;;14.30;13.70;;;;;;;-141.02;100.00;39884.66;5091983;28;20198;-73
2023/12/27 01:26:53;;;;;;;14.50;13.90;;;;;;;-141.02;100.00;39857.81;5091720;28;20660;-72
2023/12/27 01:29:20;;;;;;;14.50;13.90;;;;;;;-141.02;100.00;39877.00;5091998;28;20182;-73
2023/12/27 01:31:47;;;;;;;14.90;14.20;;;;;;;-141.02;100.00;39892.34;5092173;28;20198;-72
2023/12/27 01:34:14;;;;;;;15.30;14.60;;;;;;;-141.02;100.00;39903.84;5092222;28;20292;-73
2023/12/27 01:36:41;;;;;;;15.57;14.87;;;;;;;-141.02;100.00;39853.97;5092180;28;20200;-73
2023/12/27 01:39:09;;;;;;;15.57;14.87;;;;;;;-141.02;100.00;39888.50;5092000;28;20316;-73
2023/12/27 01:41:36;;;;;;;15.60;14.90;;;;;;;-141.02;100.00;39880.81;5092102;28;20276;-73
2023/12/27 01:44:04;;;;;;;15.40;14.70;;;;;;;-141.02;100.00;39850.13;5091784;28;20199;-73
2023/12/27 01:46:31;;;;;;;14.83;14.23;;;;;;;-141.02;100.00;39850.13;5092062;28;20278;-72
2023/12/27 01:48:59;;;;;;;14.90;14.30;;;;;;;-141.02;100.00;39802.19;5091625;28;20197;-73
2023/12/27 01:51:27;;;;;;;14.40;13.80;;;;;;;-141.02;100.00;39813.69;5091717;28;20684;-72
2023/12/27 01:53:54;;;;;;;14.80;14.20;;;;;;;-141.02;100.00;39800.25;5092792;28;20691;-73
2023/12/27 01:56:23;;;;;;;15.00;14.40;;;;;;;-141.02;100.00;39819.44;5095928;28;20190;-73
2023/12/27 01:58:50;;;;;;;14.70;14.10;;;;;;;-141.02;100.00;39727.38;5095805;28;20308;-72
2023/12/27 02:01:17;;;;;;;14.20;13.60;;;;;;;-141.02;100.00;39692.84;5095482;28;20194;-73
2023/12/27 02:03:44;;;;;;;13.70;13.20;;;;;;;-141.02;100.00;39658.34;5095375;28;20201;-73
2023/12/27 02:06:11;;;;;;;13.30;12.80;;;;;;;-141.02;100.00;39619.97;5095809;28;20285;-73
2023/12/27 02:08:39;;;;;;;13.43;12.93;;;;;;;-141.02;100.00;39577.78;5095619;28;20197;-74
2023/12/27 02:11:06;;;;;;;12.50;12.10;;;;;;;-141.02;100.00;39531.75;5095346;28;20190;-73
2023/12/27 02:13:35;;;;;;;12.77;12.37;;;;;;;-141.02;100.00;39497.22;5095184;28;20190;-73
2023/12/27 02:16:02;;;;;;;12.40;12.00;;;;;;;-141.02;100.00;39535.59;5095272;28;20236;-73
2023/12/27 02:18:30;;;;;;;13.30;12.80;;;;;;;-141.02;100.00;39516.41;5095074;28;20234;-73
2023/12/27 02:20:57;;;;;;;13.10;12.60;;;;;;;-141.02;100.00;39504.91;5095105;28;20197;-72
2023/12/27 02:23:28;;;;;;;13.13;12.63;;;;;;;-141.02;100.00;39512.56;5095158;28;20675;-73
2023/12/27 02:25:58;;;;;;;13.23;12.73;;;;;;;-141.02;100.00;39485.72;5095020;28;20684;-72
2023/12/27 02:28:25;;;;;;;13.40;12.90;;;;;;;-141.02;100.00;39460.78;5094969;28;20581;-72
2023/12/27 02:30:54;;;;;;;13.10;12.70;;;;;;;-141.02;100.00;39432.03;5094950;28;20229;-73
2023/12/27 02:33:21;;;;;;;12.63;12.23;;;;;;;-141.02;100.00;39363.00;5095184;28;20201;-71
2023/12/27 02:35:48;;;;;;;12.43;12.03;;;;;;;-141.02;100.00;39301.63;5095178;28;20284;-72
2023/12/27 02:38:16;;;;;;;12.10;11.70;;;;;;;-141.02;100.00;39272.84;5094745;28;20713;-72
2023/12/27 02:40:43;;;;;;;12.07;11.67;;;;;;;-141.02;100.00;39182.72;5094743;28;20324;-73
2023/12/27 02:43:12;;;;;;;11.90;11.50;;;;;;;-141.02;100.00;39111.78;5094989;28;20551;-72
2023/12/27 02:45:42;;;;;;;10.90;10.60;;;;;;;-141.02;100.00;39040.81;5094971;28;20281;-72
2023/12/27 02:48:12;;;;;;;10.90;10.60;;;;;;;-141.02;100.00;39010.13;5094554;28;20209;-72
2023/12/27 02:50:43;;;;;;;11.10;10.80;;;;;;;-141.02;100.00;38910.44;5094907;28;20554;-72
2023/12/27 02:53:12;;;;;;;10.80;10.50;;;;;;;-141.02;100.00;38898.91;5095119;28;20190;-71
2023/12/27 02:55:41;;;;;;;10.30;10.00;;;;;;;-141.02;100.00;38818.38;5094542;28;20259;-73
2023/12/27 02:58:15;;;;;;;10.10;9.80;;;;;;;-141.02;100.00;38778.13;5094586;28;20322;-73
2023/12/27 03:00:46;;;;;;;10.10;9.80;;;;;;;-141.02;100.00;38760.84;5094390;28;20754;-72
2023/12/27 03:03:13;;;;;;;9.80;9.50;;;;;;;-141.02;100.00;38791.53;5094489;28;20194;-72
2023/12/27 03:05:46;;;;;;;9.60;9.30;;;;;;;-141.02;100.00;38818.38;5094125;28;20676;-72
2023/12/27 03:08:13;;;;;;;8.97;8.77;;;;;;;-141.02;100.00;38829.88;5094343;28;20285;-72
2023/12/27 03:10:43;;;;;;;8.50;8.30;;;;;;;-141.02;100.00;38818.38;5094441;28;20276;-73
2023/12/27 03:13:15;;;;;;;8.93;8.73;;;;;;;-141.02;100.00;38803.03;5094113;28;20771;-72
2023/12/27 03:15:43;;;;;;;8.90;8.70;;;;;;;-141.02;100.00;38783.88;5094903;28;20255;-72
2023/12/27 03:18:16;;;;;;;8.90;8.70;;;;;;;-141.02;100.00;38806.88;5093911;28;20317;-73
2023/12/27 03:20:43;;;;;;;8.80;8.60;;;;;;;-141.02;100.00;38766.63;5094267;28;20201;-73
2023/12/27 03:23:14;;;;;;;8.80;8.60;;;;;;;-141.02;100.00;38881.66;5094286;28;20225;-72
2023/12/27 03:25:43;;;;;;;9.07;8.83;;;;;;;-141.02;100.00;38902.75;5093877;28;20293;-71
2023/12/27 03:28:15;;;;;;;9.57;9.27;;;;;;;-141.02;100.00;38927.69;5093746;28;20272;-71
2023/12/27 03:30:42;;;;;;;10.20;9.90;;;;;;;-141.02;100.00;38958.38;5093945;28;20197;-71
2023/12/27 03:33:15;;;;;;;10.47;10.17;;;;;;;-141.02;100.00;38923.84;5094011;28;20237;-72
2023/12/27 03:35:45;;;;;;;10.90;10.60;;;;;;;-141.02;100.00;38983.28;5093977;28;20221;-72
2023/12/27 03:38:15;;;;;;;11.00;10.70;;;;;;;-141.02;100.00;38975.63;5093883;28;20317;-71
2023/12/27 03:40:42;;;;;;;11.97;11.57;;;;;;;-141.02;100.00;38979.47;5094159;28;20197;-72
2023/12/27 03:43:09;;;;;;;11.77;11.37;;;;;;;-141.02;100.00;38992.88;5093783;28;20297;-72
2023/12/27 03:45:37;;;;;;;12.00;11.60;;;;;;;-141.02;100.00;38987.13;5093495;28;20255;-72
2023/12/27 03:48:05;;;;;;;12.30;11.90;;;;;;;-141.02;100.00;38990.97;5093444;28;20744;-72
2023/12/27 03:50:32;;;;;;;12.53;12.13;;;;;;;-141.02;100.00;38990.97;5093455;28;20232;-67
2023/12/27 03:52:59;;;;;;;12.07;11.67;;;;;;;-141.02;100.00;39013.97;5093295;28;20285;-67
2023/12/27 03:55:26;;;;;;;12.80;12.40;;;;;;;-141.02;100.00;39025.47;5093560;28;20201;-70
2023/12/27 03:57:54;;;;;;;13.00;12.60;;;;;;;-141.02;100.00;39036.97;5093204;28;20193;-68
2023/12/27 04:00:21;;;;;;;13.00;12.60;;;;;;;-141.02;100.00;38985.22;5093489;28;20226;-74
2023/12/27 04:02:49;;;;;;;13.27;12.77;;;;;;;-141.02;100.00;39013.97;5093896;28;20198;-70
2023/12/27 04:05:17;;;;;;;13.70;13.20;;;;;;;-141.02;100.00;39021.63;5093111;28;20190;-69
2023/12/27 04:07:46;;;;;;;13.60;13.10;;;;;;;-141.02;100.00;39015.88;5093373;28;20204;-70
2023/12/27 04:10:16;;;;;;;13.50;13.00;;;;;;;-141.02;100.00;39048.50;5093072;28;20255;-69
2023/12/27 04:12:46;;;;;;;13.50;13.00;;;;;;;-141.02;100.00;39044.66;5093521;28;20274;-72
2023/12/27 04:15:25;;;;;;;13.50;13.00;;;;;;;-141.02;100.00;39025.47;5092357;28;20282;-70
2023/12/27 04:17:54;;;;;;;13.63;13.13;;;;;;;-141.02;100.00;39052.31;5092377;28;20199;-72
2023/12/27 04:20:21;;;;;;;13.67;13.17;;;;;;;-141.02;100.00;39058.06;5092844;28;20194;-69
2023/12/27 04:22:48;;;;;;;13.80;13.30;;;;;;;-141.02;100.00;39046.56;5093083;28;20285;-71
2023/12/27 04:25:15;;;;;;;14.00;13.50;;;;;;;-141.02;100.00;39050.41;5093041;28;20197;-69
2023/12/27 04:27:45;;;;;;;13.97;13.47;;;;;;;-141.02;100.00;39088.75;5092402;28;20703;-71
2023/12/27 04:30:16;;;;;;;13.90;13.40;;;;;;;-141.02;100.00;39092.59;5093038;28;20233;-74
2023/12/27 04:32:46;;;;;;;13.80;13.30;;;;;;;-141.02;100.00;39090.69;5093011;28;20648;-74
2023/12/27 04:35:17;;;;;;;13.53;13.03;;;;;;;-141.02;100.00;39098.34;5092599;28;20198;-70
2023/12/27 04:38:02;;;;;;;13.60;13.10;;;;;;;-141.02;100.00;39098.34;5092874;28;20707;-72
2023/12/27 04:40:29;;;;;;;13.67;13.17;;;;;;;-141.02;100.00;39140.53;5092589;28;20285;-72
2023/12/27 04:43:21;;;;;;;13.40;12.90;;;;;;;-141.02;100.00;39102.19;5092659;28;20751;-71
2023/12/27 04:45:48;;;;;;;14.10;13.50;;;;;;;-141.02;100.00;39098.34;5092454;28;20233;-69
2023/12/27 04:48:35;;;;;;;14.20;13.60;;;;;;;-141.02;100.00;39107.94;5092550;28;20203;-69
2023/12/27 04:51:04;;;;;;;13.70;13.20;;;;;;;-141.02;100.00;39109.84;5092686;28;20277;-72
2023/12/27 04:53:31;;;;;;;14.13;13.53;;;;;;;-141.02;100.00;39109.84;5092487;28;20660;-71
2023/12/27 04:55:59;;;;;;;13.90;13.40;;;;;;;-141.02;100.00;39142.44;5092553;28;20266;-71
2023/12/27 04:58:26;;;;;;;13.50;13.00;;;;;;;-141.02;100.00;39132.88;5092268;28;20672;-70
2023/12/27 05:00:53;;;;;;;13.90;13.40;;;;;;;-141.02;100.00;39132.88;5092256;28;20193;-72
2023/12/27 05:03:20;;;;;;;14.00;13.50;;;;;;;-141.02;100.00;39138.63;5092168;28;20285;-72
2023/12/27 05:05:47;;;;;;;14.03;13.47;;;;;;;-141.02;100.00;39182.72;5092195;28;20247;-71
2023/12/27 05:08:16;;;;;;;14.00;13.50;;;;;;;-141.02;100.00;39165.47;5093500;28;20202;-70
2023/12/27 05:10:43;;;;;;;13.60;13.10;;;;;;;-141.02;100.00;39173.13;5092458;28;20289;-73
2023/12/27 05:13:09;;;;;;;13.60;13.10;;;;;;;-141.02;100.00;39148.19;5092431;28;20202;-74
2023/12/27 05:15:36;;;;;;;13.70;13.20;;;;;;;-141.02;100.00;39140.53;5091991;28;20229;-72
2023/12/27 05:18:04;;;;;;;13.40;12.90;;;;;;;-141.02;100.00;39132.88;5092069;28;20660;-69
2023/12/27 05:20:31;;;;;;;13.40;12.90;;;;;;;-141.02;100.00;39127.09;5091936;28;20285;-69
2023/12/27 05:22:58;;;;;;;13.40;12.90;;;;;;;-141.02;100.00;39148.19;5092240;28;20194;-72
2023/12/27 05:25:26;;;;;;;13.80;13.30;;;;;;;-141.02;100.00;39152.03;5092246;28;20204;-70
2023/12/27 05:27:53;;;;;;;13.73;13.23;;;;;;;-141.02;100.00;39167.38;5091710;28;20786;-69
2023/12/27 05:30:20;;;;;;;14.10;13.60;;;;;;;-141.02;100.00;39167.38;5095501;28;20281;-71
2023/12/27 05:32:47;;;;;;;13.80;13.30;;;;;;;-141.02;100.00;39217.25;5096043;28;20229;-73
2023/12/27 05:35:14;;;;;;;13.60;13.10;;;;;;;-141.02;100.00;39224.91;5096243;28;20285;-72
2023/12/27 05:37:44;;;;;;;13.47;12.97;;;;;;;-141.02;100.00;39313.13;5096209;28;20193;-70
2023/12/27 05:40:11;;;;;;;13.20;12.70;;;;;;;-141.02;100.00;39378.31;5095808;28;20264;-73
2023/12/27 05:42:40;;;;;;;12.90;12.50;;;;;;;-141.02;100.00;39403.25;5096218;28;20254;-72
2023/12/27 05:45:07;;;;;;;13.00;12.50;;;;;;;-141.02;100.00;39493.41;5095848;28;20251;-70
2023/12/27 05:47:34;;;;;;;12.90;12.40;;;;;;;-141.02;100.00;39558.59;5096090;28;20222;-69
2023/12/27 05:50:01;;;;;;;12.93;12.43;;;;;;;-141.02;100.00;39631.47;5095701;28;20193;-73
2023/12/27 05:52:28;;;;;;;12.87;12.40;;;;;;;-141.02;100.00;39715.88;5095704;28;20194;-72
2023/12/27 05:54:55;;;;;;;12.83;12.40;;;;;;;-141.02;100.00;39792.59;5095643;28;20289;-71
2023/12/27 05:57:22;;;;;;;12.30;11.90;;;;;;;-141.02;100.00;39850.13;5096098;28;20277;-72
2023/12/27 05:59:51;;;;;;;13.23;12.80;;;;;;;-141.02;100.00;39903.84;5095801;28;20251;-72
2023/12/27 06:02:18;;;;;;;11.80;11.40;;;;;;;-141.02;100.00;39980.56;5095743;28;20197;-73
2023/12/27 06:04:45;;;;;;;12.13;11.73;;;;;;;-141.02;100.00;40089.91;5095720;28;20281;-74
2023/12/27 06:07:12;;;;;;;12.30;11.90;;;;;;;-141.02;100.00;40141.69;5095953;28;20205;-72
2023/12/27 06:09:40;;;;;;;12.33;11.93;;;;;;;-141.02;100.00;40210.75;5095674;28;20233;-73
2023/12/27 06:12:08;;;;;;;12.10;11.70;;;;;;;-141.02;100.00;40251.03;5095331;28;20671;-73
2023/12/27 06:14:35;;;;;;;12.10;11.70;;;;;;;-141.02;100.00;40327.75;5095276;28;20572;-74
2023/12/27 06:17:04;;;;;;;11.70;11.30;;;;;;;-141.02;100.00;40339.28;5095563;28;20232;-72
2023/12/27 06:19:32;;;;;;;11.83;11.43;;;;;;;-141.02;100.00;40379.56;5095107;28;20226;-71
2023/12/27 06:21:59;;;;;;;11.47;11.07;;;;;;;-141.02;100.00;40439.03;5095343;28;20285;-71
2023/12/27 06:24:26;;;;;;;11.10;10.80;;;;;;;-141.02;100.00;40473.56;5095689;28;20198;-73
2023/12/27 06:26:53;;;;;;;11.20;10.90;;;;;;;-141.02;100.00;40483.16;5095113;28;20240;-74
2023/12/27 06:29:19;;;;;;;11.40;11.00;;;;;;;-141.02;100.00;40533.03;5095322;28;20222;-74
2023/12/27 06:31:47;;;;;;;11.40;11.00;;;;;;;-141.02;100.00;40567.56;5095256;28;20222;-74
2023/12/27 06:34:17;;;;;;;11.60;11.20;;;;;;;-141.02;100.00;40600.16;5094921;28;20292;-72
2023/12/27 06:36:44;;;;;;;11.10;10.80;;;;;;;-141.02;100.00;40755.56;5095193;28;20277;-72
2023/12/27 06:39:11;;;;;;;11.50;11.10;;;;;;;-141.02;100.00;40855.34;5094849;28;20232;-72
2023/12/27 06:41:38;;;;;;;11.70;11.30;;;;;;;-141.02;100.00;40824.63;5094786;28;20288;-73
2023/12/27 06:44:05;;;;;;;12.70;12.30;;;;;;;-141.02;100.00;40793.94;5095002;28;20198;-73
2023/12/27 06:46:32;;;;;;;13.20;12.70;;;;;;;-141.02;100.00;40801.63;5095010;28;20194;-74
2023/12/27 06:48:59;;;;;;;13.73;13.23;;;;;;;-141.02;100.00;40822.72;5094798;28;20198;-74
2023/12/27 06:51:27;;;;;;;13.60;13.10;;;;;;;-141.02;100.00;40816.97;5094629;28;20652;-73
2023/12/27 06:53:55;;;;;;;14.10;13.60;;;;;;;-141.02;100.00;40830.41;5094893;28;20193;-73
2023/12/27 06:56:22;;;;;;;14.30;13.70;;;;;;;-141.02;100.00;40824.63;5094447;28;20190;-73
2023/12/27 06:58:49;;;;;;;14.00;13.50;;;;;;;-141.02;100.00;40851.50;5094367;28;20285;-74
2023/12/27 07:01:16;;;;;;;13.67;13.17;;;;;;;-141.02;100.00;40843.81;5094395;28;20566;-73
2023/12/27 07:03:43;;;;;;;13.90;13.40;;;;;;;-141.02;100.00;40828.47;5094432;28;20674;-70
2023/12/27 07:06:10;;;;;;;14.60;14.00;;;;;;;-141.02;100.00;40855.34;5094593;28;20281;-68
2023/12/27 07:08:38;;;;;;;15.10;14.40;;;;;;;-141.02;100.00;40878.38;5094493;28;20207;-74
2023/12/27 07:11:05;;;;;;;14.90;14.20;;;;;;;-141.02;100.00;40853.41;5094515;28;20198;-72
2023/12/27 07:13:32;;;;;;;17.17;16.37;;;;;;;-141.02;100.00;40847.66;5094128;28;20750;-74
2023/12/27 07:15:59;;;;;;;15.10;14.40;;;;;;;-141.02;100.00;40863.00;5094390;28;20301;-73
2023/12/27 07:18:26;;;;;;;15.40;14.70;;;;;;;-141.02;100.00;40859.19;5094285;28;20678;-73
2023/12/27 07:20:53;;;;;;;15.60;14.90;;;;;;;-141.02;100.00;40878.38;5094253;28;20252;-74
2023/12/27 07:23:20;;;;;;;16.27;15.38;;;;;;;-141.02;100.00;40907.16;5094294;28;20202;-71
2023/12/27 07:25:48;;;;;;;16.30;15.40;;;;;;;-141.02;100.00;40872.59;5094139;28;20220;-73
2023/12/27 07:28:15;;;;;;;16.20;15.30;;;;;;;-141.02;100.00;40922.50;5093800;28;20238;-73
2023/12/27 07:30:42;;;;;;;15.85;14.95;;;;;;;-141.02;100.00;40910.97;5093879;28;20198;-73
2023/12/27 07:33:09;;;;;;;16.10;15.20;;;;;;;-141.02;100.00;40924.41;5093715;28;20200;-71
2023/12/27 07:35:36;;;;;;;16.20;15.30;;;;;;;-141.02;100.00;40912.91;5093708;28;20574;-73
2023/12/27 07:38:03;;;;;;;16.30;15.40;;;;;;;-141.02;100.00;40932.09;5093948;28;20278;-73
2023/12/27 07:40:31;;;;;;;16.35;15.45;;;;;;;-141.02;100.00;40907.16;5093544;28;20226;-72
2023/12/27 07:42:59;;;;;;;16.53;15.63;;;;;;;-141.02;100.00;40918.66;5093902;28;20198;-73
2023/12/27 07:45:26;;;;;;;16.77;15.77;;;;;;;-141.02;100.00;40905.22;5093582;28;20205;-73
2023/12/27 07:47:53;;;;;;;16.98;16.08;;;;;;;-141.02;100.00;40891.78;5093447;28;20193;-73
2023/12/27 07:50:20;;;;;;;16.70;15.70;;;;;;;-141.02;100.00;40878.38;5093435;28;20200;-72
2023/12/27 07:52:47;;;;;;;16.80;15.80;;;;;;;-141.02;100.00;40928.25;5092803;28;20197;-73
2023/12/27 07:55:14;;;;;;;17.40;16.30;;;;;;;-141.02;100.00;41001.16;5093606;28;20204;-72
2023/12/27 07:57:41;;;;;;;17.50;16.40;;;;;;;-141.02;100.00;41005.00;5093595;28;20196;-73
2023/12/27 08:00:11;;;;;;;17.77;16.67;;;;;;;-141.02;100.00;41039.53;5093078;28;20225;-72
2023/12/27 08:02:40;;;;;;;17.50;16.40;;;;;;;-141.02;100.00;41012.66;5093474;28;20186;-71
2023/12/27 08:05:08;;;;;;;17.52;16.42;;;;;;;-141.02;100.00;41029.94;5093136;28;20281;-73
2023/12/27 08:07:35;;;;;;;17.40;16.40;;;;;;;-141.02;100.00;41006.91;5093351;28;20667;-72
2023/12/27 08:10:02;;;;;;;17.40;16.35;;;;;;;-141.02;100.00;41043.38;5093411;28;20277;-72
2023/12/27 08:12:30;;;;;;;17.67;16.58;;;;;;;-141.02;100.00;41066.41;5092988;28;20197;-72
2023/12/27 08:14:57;;;;;;;17.42;16.42;;;;;;;-141.02;100.00;41093.25;5092938;28;20194;-73
2023/12/27 08:17:26;;;;;;;17.50;16.40;;;;;;;-141.02;100.00;41066.41;5093264;28;20244;-72
2023/12/27 08:19:54;;;;;;;17.73;16.63;;;;;;;-141.02;100.00;41106.69;5092759;28;20222;-73
2023/12/27 08:22:21;;;;;;;18.70;17.50;;;;;;;-141.02;100.00;41058.72;5092864;28;20284;-73
2023/12/27 08:24:48;;;;;;;18.63;17.52;;;;;;;-141.02;100.00;41120.13;5093143;28;20193;-70
2023/12/27 08:27:15;;;;;;;18.40;17.20;;;;;;;-141.02;100.00;41193.03;5092923;28;20316;-73
2023/12/27 08:29:42;;;;;;;18.58;17.38;;;;;;;-141.02;100.00;41177.69;5092676;28;20642;-72
2023/12/27 08:32:09;;;;;;;17.67;16.58;;;;;;;-141.02;100.00;41175.75;5092635;28;20656;-72
2023/12/27 08:34:38;;;;;;;17.60;16.50;;;;;;;-141.02;100.00;41214.13;5092894;28;20194;-73
2023/12/27 08:37:05;;;;;;;19.00;17.80;;;;;;;-141.02;100.00;41212.22;5092892;28;20277;-72
2023/12/27 08:39:31;;;;;;;18.80;17.55;;;;;;;-141.02;100.00;41227.56;5092499;28;20687;-72
2023/12/27 08:41:58;;;;;;;18.52;17.33;;;;;;;-141.02;100.00;41252.53;5092487;28;20750;-72
2023/12/27 08:44:25;;;;;;;17.98;16.77;;;;;;;-141.02;100.00;41267.88;5092472;28;20197;-71
2023/12/27 08:46:52;;;;;;;18.30;17.10;;;;;;;-141.02;100.00;41273.63;5092443;28;20194;-72
2023/12/27 08:49:19;;;;;;;19.73;18.33;;;;;;;-141.02;100.00;41281.31;5092919;28;20194;-71
2023/12/27 08:51:48;;;;;;;19.95;18.55;;;;;;;-141.02;100.00;41321.59;5092666;28;20202;-70
2023/12/27 08:54:16;;;;;;;20.13;18.63;;;;;;;-141.02;100.00;41308.16;5092636;28;20199;-72
2023/12/27 08:56:43;;;;;;;20.08;18.58;;;;;;;-141.02;100.00;41342.69;5092592;28;20204;-70
2023/12/27 08:59:09;;;;;;;19.48;17.98;;;;;;;-141.02;100.00;41342.69;5092394;28;20280;-72
2023/12/27 09:01:36;;;;;;;19.77;18.27;;;;;;;-141.02;100.00;41359.97;5092071;28;20722;-70
2023/12/27 09:04:04;;;;;;;20.27;18.77;;;;;;;-141.02;100.00;41354.22;5092273;28;20243;-71
2023/12/27 09:06:32;;;;;;;21.25;19.65;;;;;;;-141.02;100.00;41377.25;5092416;28;20194;-72
2023/12/27 09:09:00;;;;;;;21.52;19.83;;;;;;;-141.02;98.86;41354.22;5092417;28;20212;-72
2023/12/27 09:11:27;;;;;;;20.45;18.83;;;;;;;-141.02;100.00;41394.50;5092077;28;20201;-72
2023/12/27 09:13:54;;;;;;;20.40;18.70;;;;;;;-141.02;98.51;41406.03;5092320;28;20200;-71
2023/12/27 09:16:21;;;;;;;21.90;20.20;;;;;;;-141.02;98.96;41409.88;5092279;28;20281;-71
2023/12/27 09:18:48;;;;;;;20.75;19.15;;;;;;;-141.02;97.55;41434.81;5092244;28;20193;-70
2023/12/27 09:21:15;;;;;;;21.83;20.02;;;;;;;-141.02;93.97;41446.31;5092442;28;20611;-69
2023/12/27 09:23:43;;;;;;;20.40;18.70;;;;;;;-141.02;97.02;41446.31;5091889;28;20255;-70
2023/12/27 09:26:13;;;;;;;20.40;18.70;;;;;;;-141.02;96.24;41457.84;5091812;28;20197;-71
2023/12/27 09:28:40;;;;;;;20.52;18.83;;;;;;;-141.02;93.10;41475.09;5091646;28;20258;-71
2023/12/27 09:31:08;;;;;;;21.80;20.00;;;;;;;-141.02;91.54;41471.28;5091899;28;20577;-72
2023/12/27 09:33:35;;;;;;;21.60;19.80;;;;;;;-141.02;92.80;41480.88;5092327;28;20212;-72
2023/12/27 09:36:03;;;;;;;21.92;20.13;;;;;;;-141.02;94.54;41446.31;5092185;28;20251;-72
2023/12/27 09:38:30;;;;;;;20.38;18.67;;;;;;;-141.02;94.69;41484.72;5091849;28;20194;-71
2023/12/27 09:40:57;;;;;;;20.08;18.38;;;;;;;-141.02;95.65;41438.66;5091697;28;20316;-72
2023/12/27 09:43:28;;;;;;;20.88;19.17;;;;;;;-141.02;96.86;41473.19;5091841;28;20229;-71
2023/12/27 09:45:56;;;;;;;21.65;19.85;;;;;;;-141.02;96.86;41473.19;5092097;28;20579;-71
2023/12/27 09:48:26;;;;;;;21.90;20.10;;;;;;;-141.02;94.26;41501.97;5092098;28;20566;-72
2023/12/27 09:50:53;;;;;;;20.77;18.98;;;;;;;-141.02;94.46;41500.06;5092038;28;20198;-71
2023/12/27 09:53:20;;;;;;;20.80;18.98;;;;;;;-141.02;91.39;41492.38;5091943;28;20196;-71
2023/12/27 09:55:48;;;;;;;21.40;19.60;;;;;;;-141.02;92.07;41530.75;5091668;28;20208;-71
2023/12/27 09:58:16;;;;;;;21.75;19.95;;;;;;;-141.02;93.99;41530.75;5092033;28;20200;-72
2023/12/27 10:00:47;;;;;;;22.40;20.50;;;;;;;-141.02;91.17;41503.91;5091885;28;20230;-70
2023/12/27 10:03:19;;;;;;;22.17;20.27;;;;;;;-141.02;91.71;41511.56;5091963;28;20196;-71
2023/12/27 10:05:55;;;;;;;20.42;18.73;;;;;;;-141.02;91.79;41507.72;5091703;28;20190;-70
2023/12/27 10:08:22;;;;;;;21.27;19.48;;;;;;;-141.02;90.14;41523.09;5091620;28;20192;-71
2023/12/27 10:10:51;;;;;;;22.02;20.17;;;;;;;-141.02;90.93;41523.09;5092101;28;20205;-70
2023/12/27 10:13:20;;;;;;;22.20;20.30;;;;;;;-141.02;91.82;41519.25;5091843;28;20229;-71
2023/12/27 10:15:49;;;;;;;22.63;20.73;;;;;;;-141.02;91.39;41526.91;5093972;28;20202;-71
2023/12/27 10:18:15;;;;;;;21.10;19.30;;;;;;;-141.02;89.50;41584.50;5095303;28;20686;-66
2023/12/27 10:20:46;;;;;;;22.25;20.25;;;;;;;-141.02;84.31;41572.97;5095125;28;20226;-66
2023/12/27 10:23:13;;;;;;;22.45;20.50;;;;;;;-141.02;84.79;41599.84;5095176;28;20186;-71
2023/12/27 10:25:40;;;;;;;23.48;21.48;;;;;;;-141.02;84.93;41576.81;5095077;28;20198;-71
2023/12/27 10:28:07;;;;;;;23.48;21.42;;;;;;;-141.02;85.30;41572.97;5094931;28;20233;-70
2023/12/27 10:30:34;;;;;;;22.05;20.05;;;;;;;-141.02;83.37;41607.53;5095007;28;20251;-71
2023/12/27 10:33:03;;;;;;;22.65;20.55;;;;;;;-141.02;83.25;41615.19;5095255;28;20281;-72
2023/12/27 10:35:31;;;;;;;22.48;20.48;;;;;;;-141.02;81.79;41592.16;5094861;28;20284;-69
2023/12/27 10:38:02;;;;;;;24.25;22.15;;;;;;;-141.02;80.43;41630.56;5095110;28;20201;-68
2023/12/27 10:40:29;;;;;;;24.33;22.23;;;;;;;-141.02;79.84;41594.09;5094801;28;20229;-73
2023/12/27 10:42:56;;;;;;;22.67;20.67;;;;;;;-141.02;80.39;41607.53;5094783;28;20190;-72
2023/12/27 10:45:23;;;;;;;22.85;20.85;;;;;;;-141.02;77.92;41611.34;5094681;28;20193;-70
2023/12/27 10:47:57;;;;;;;23.40;21.30;;;;;;;-141.02;76.32;41668.94;5094888;28;20232;-72
2023/12/27 10:50:27;;;;;;;25.20;23.02;;;;;;;-141.02;73.55;41657.41;5094677;28;20243;-71
2023/12/27 10:53:02;;;;;;;25.35;23.15;;;;;;;-141.02;72.63;41642.06;5094660;28;20656;-71
2023/12/27 10:55:31;;;;;;;25.60;23.40;;;;;;;-141.02;70.85;41665.09;5094641;28;20185;-69
2023/12/27 10:58:00;;;;;;;23.15;21.05;;;;;;;-141.02;72.07;41701.56;5094476;28;20233;-71
2023/12/27 11:00:29;;;;;;;22.85;20.75;;;;;;;-141.02;70.97;41676.59;5094374;28;20271;-72